Time;durP1;ratioP1;P1;durP2;ratioP2;P2;SDS_P1;SDS_P2;PMS_P1;PMS_P2;Temp;Humidity;BMP_temperature;BMP_pressure;BME280_temperature;BME280_humidity;BME280_pressure;Samples;Min_cycle;Max_cycle;Signal;HPM_P1;HPM_P2
2021/07/18 00:00:28;;;;;;;;;8.25;7.25;;;;;21.16;70.31;102063.97;4997454;28;45442;-70
2021/07/18 00:02:54;;;;;;;;;8.50;8.00;;;;;21.13;70.88;102054.31;4995255;28;45661;-70
2021/07/18 00:05:19;;;;;;;;;6.25;5.75;;;;;21.12;71.44;102047.25;4995770;28;46228;-70
2021/07/18 00:07:44;;;;;;;;;7.75;5.75;;;;;21.08;71.20;102059.09;4994580;28;45394;-70
2021/07/18 00:10:11;;;;;;;;;9.75;8.25;;;;;21.04;71.57;102055.81;4995786;28;45455;-70
2021/07/18 00:12:36;;;;;;;;;8.50;8.50;;;;;20.99;71.10;102057.06;4996365;28;45821;-70
2021/07/18 00:15:03;;;;;;;;;8.00;8.00;;;;;20.96;71.27;102055.44;4996509;28;45660;-70
2021/07/18 00:17:29;;;;;;;;;12.50;8.00;;;;;20.93;72.01;102062.78;4996229;28;45410;-71
2021/07/18 00:19:55;;;;;;;;;8.00;7.00;;;;;20.91;70.73;102060.22;4996900;28;45397;-70
2021/07/18 00:22:20;;;;;;;;;8.25;6.75;;;;;20.88;72.55;102051.53;4996201;28;45384;-71
2021/07/18 00:24:45;;;;;;;;;7.25;7.25;;;;;20.84;71.92;102050.91;4987169;28;47011;-70
2021/07/18 00:27:11;;;;;;;;;7.50;7.50;;;;;20.83;72.28;102050.06;4996283;28;45525;-70
2021/07/18 00:29:36;;;;;;;;;7.00;7.00;;;;;20.78;72.30;102041.47;4993597;28;45218;-70
2021/07/18 00:32:01;;;;;;;;;8.75;8.00;;;;;20.81;71.94;102056.44;4996534;28;46651;-70
2021/07/18 00:34:27;;;;;;;;;9.50;8.25;;;;;20.77;72.61;102058.44;4995265;28;46444;-70
2021/07/18 00:36:52;;;;;;;;;11.00;8.00;;;;;20.74;72.65;102053.31;4989840;28;45480;-70
2021/07/18 00:39:17;;;;;;;;;6.00;6.00;;;;;20.74;72.80;102064.00;4996427;28;45496;-71
2021/07/18 00:41:43;;;;;;;;;9.75;6.75;;;;;20.71;73.14;102050.81;4995371;28;45481;-70
2021/07/18 00:44:10;;;;;;;;;7.50;6.75;;;;;20.70;72.67;102045.59;4995086;28;45770;-71
2021/07/18 00:46:35;;;;;;;;;11.50;9.50;;;;;20.69;72.46;102051.91;4995080;28;45689;-70
2021/07/18 00:49:00;;;;;;;;;10.25;7.00;;;;;20.66;72.64;102055.59;4996867;28;45407;-69
2021/07/18 00:51:26;;;;;;;;;5.75;5.75;;;;;20.60;73.53;102053.34;4996031;28;45343;-70
2021/07/18 00:53:52;;;;;;;;;8.00;8.00;;;;;20.55;72.61;102042.94;4995476;28;45401;-70
2021/07/18 00:56:18;;;;;;;;;10.00;9.00;;;;;20.59;73.24;102046.28;4994547;28;45663;-70
2021/07/18 00:58:45;;;;;;;;;11.75;8.75;;;;;20.58;72.59;102052.59;4991702;28;45362;-70
2021/07/18 01:01:11;;;;;;;;;12.00;9.50;;;;;20.52;73.13;102043.16;4995540;28;45551;-70
2021/07/18 01:03:37;;;;;;;;;10.75;10.00;;;;;20.48;73.41;102055.00;4995542;28;45839;-70
2021/07/18 01:06:02;;;;;;;;;8.75;8.00;;;;;20.46;73.09;102047.97;4992792;28;45432;-70
2021/07/18 01:08:27;;;;;;;;;9.00;8.00;;;;;20.42;73.68;102044.66;4995677;28;45922;-70
2021/07/18 01:10:53;;;;;;;;;12.00;8.00;;;;;20.40;73.58;102053.72;4995234;28;45473;-70
2021/07/18 01:13:18;;;;;;;;;10.25;8.25;;;;;20.36;73.08;102055.75;4992952;28;46343;-70
2021/07/18 01:15:44;;;;;;;;;10.75;9.00;;;;;20.27;73.68;102045.63;4993980;28;45551;-70
2021/07/18 01:18:11;;;;;;;;;8.50;7.00;;;;;20.31;73.86;102060.50;4996244;28;45348;-70
2021/07/18 01:20:38;;;;;;;;;9.25;6.25;;;;;20.27;74.09;102059.84;4995816;28;45475;-69
2021/07/18 01:23:04;;;;;;;;;8.50;7.25;;;;;20.23;74.50;102046.78;4995055;28;46737;-69
2021/07/18 01:25:29;;;;;;;;;9.75;7.00;;;;;20.23;73.96;102060.13;4995441;28;45525;-70
2021/07/18 01:27:55;;;;;;;;;12.00;8.75;;;;;20.17;74.35;102044.50;4990898;28;45488;-70
2021/07/18 01:30:20;;;;;;;;;8.00;6.25;;;;;20.19;74.62;102054.13;4993985;28;45618;-69
2021/07/18 01:32:46;;;;;;;;;9.00;7.25;;;;;20.13;74.60;102050.97;4994908;28;46571;-70
2021/07/18 01:35:11;;;;;;;;;10.50;9.00;;;;;20.13;74.04;102065.19;4994864;28;45442;-70
2021/07/18 01:37:37;;;;;;;;;9.75;8.75;;;;;20.11;74.27;102060.91;4984671;28;45563;-70
2021/07/18 01:40:06;;;;;;;;;13.50;8.50;;;;;20.08;74.27;102064.59;4994694;28;45368;-70
2021/07/18 01:42:32;;;;;;;;;15.50;10.75;;;;;20.04;74.50;102060.41;4994387;28;45477;-70
2021/07/18 01:44:57;;;;;;;;;10.75;8.00;;;;;20.03;74.52;102062.22;4990615;28;45428;-70
2021/07/18 01:47:23;;;;;;;;;8.50;6.00;;;;;20.00;74.24;102057.09;4994328;28;47183;-70
2021/07/18 01:49:48;;;;;;;;;9.00;7.00;;;;;19.97;74.56;102049.25;4985425;28;45596;-69
2021/07/18 01:52:17;;;;;;;;;9.00;7.75;;;;;19.98;74.22;102053.63;4988886;28;45735;-70
2021/07/18 01:54:43;;;;;;;;;13.50;7.25;;;;;19.94;75.10;102044.13;4995566;28;45408;-69
2021/07/18 01:57:17;;;;;;;;;11.00;7.50;;;;;19.95;74.96;102047.66;4995715;28;45510;-69
2021/07/18 01:59:44;;;;;;;;;11.00;8.75;;;;;19.92;74.57;102046.00;4980622;28;45368;-70
2021/07/18 02:02:09;;;;;;;;;10.50;8.50;;;;;19.86;74.85;102034.88;4984381;28;46662;-70
2021/07/18 02:04:35;;;;;;;;;10.50;8.00;;;;;19.80;75.10;102036.09;4993952;28;45475;-69
2021/07/18 02:07:03;;;;;;;;;9.75;7.00;;;;;19.86;74.84;102045.53;4993876;28;45436;-70
2021/07/18 02:09:28;;;;;;;;;7.75;6.00;;;;;19.80;74.83;102039.63;4982183;28;45452;-69
2021/07/18 02:11:54;;;;;;;;;11.00;7.00;;;;;19.85;74.75;102046.50;4995368;28;46213;-70
2021/07/18 02:14:19;;;;;;;;;11.00;7.75;;;;;19.83;75.35;102048.38;4987295;28;45717;-70
2021/07/18 02:16:48;;;;;;;;;11.50;9.25;;;;;19.81;74.78;102049.34;4994631;28;45556;-69
2021/07/18 02:19:14;;;;;;;;;11.00;9.50;;;;;19.76;75.07;102040.75;4994880;28;45582;-69
2021/07/18 02:21:40;;;;;;;;;7.25;7.25;;;;;19.77;75.37;102041.59;4994879;28;46794;-69
2021/07/18 02:24:06;;;;;;;;;11.50;7.00;;;;;19.71;75.28;102036.66;4994693;28;45449;-69
2021/07/18 02:26:31;;;;;;;;;8.25;8.25;;;;;19.71;75.35;102044.66;4983129;28;45423;-69
2021/07/18 02:28:58;;;;;;;;;9.00;8.25;;;;;19.69;75.42;102042.09;4993782;28;45265;-70
2021/07/18 02:31:24;;;;;;;;;11.50;8.00;;;;;19.65;75.73;102034.38;4994299;28;47359;-70
2021/07/18 02:33:50;;;;;;;;;11.50;9.50;;;;;19.65;75.98;102037.03;4993370;28;45760;-70
2021/07/18 02:36:15;;;;;;;;;16.00;9.50;;;;;19.62;76.17;102043.38;4994636;28;45473;-70
2021/07/18 02:38:40;;;;;;;;;13.50;11.00;;;;;19.60;75.93;102047.13;4994454;28;46012;-70
2021/07/18 02:41:06;;;;;;;;;11.00;9.50;;;;;19.55;75.78;102039.34;4991801;28;46588;-69
2021/07/18 02:43:31;;;;;;;;;8.50;7.00;;;;;19.54;76.25;102040.31;4989814;28;45386;-69
2021/07/18 02:45:56;;;;;;;;;7.75;7.75;;;;;19.48;75.37;102028.22;4992084;28;45564;-69
2021/07/18 02:48:22;;;;;;;;;11.00;10.50;;;;;19.47;76.22;102030.94;4994068;28;45416;-70
2021/07/18 02:50:47;;;;;;;;;11.75;8.50;;;;;19.44;76.36;102039.16;4994748;28;46737;-70
2021/07/18 02:53:12;;;;;;;;;11.00;8.00;;;;;19.41;76.34;102033.97;4993502;28;45393;-69
2021/07/18 02:55:38;;;;;;;;;11.75;8.75;;;;;19.38;76.13;102034.19;4993542;28;45637;-70
2021/07/18 02:58:03;;;;;;;;;9.50;7.00;;;;;19.34;76.77;102029.97;4993924;28;45467;-70
2021/07/18 03:00:29;;;;;;;;;7.75;7.00;;;;;19.33;76.47;102039.78;4993229;28;54901;-69
2021/07/18 03:02:54;;;;;;;;;11.25;8.75;;;;;19.32;76.09;102042.53;4993937;28;45735;-70
2021/07/18 03:05:20;;;;;;;;;9.50;9.00;;;;;19.30;76.53;102031.94;4993297;28;45579;-70
2021/07/18 03:07:46;;;;;;;;;11.50;9.00;;;;;19.28;76.57;102041.84;4992349;28;45731;-69
2021/07/18 03:10:14;;;;;;;;;12.50;9.25;;;;;19.25;76.90;102034.03;4993546;28;46586;-70
2021/07/18 03:12:39;;;;;;;;;10.00;8.75;;;;;19.22;76.55;102027.09;4993805;28;45449;-70
2021/07/18 03:15:08;;;;;;;;;6.50;6.50;;;;;19.23;76.83;102035.94;4987544;28;45306;-70
2021/07/18 03:17:34;;;;;;;;;11.50;9.75;;;;;19.24;76.87;102027.00;4989303;28;45521;-70
2021/07/18 03:19:59;;;;;;;;;8.75;7.00;;;;;19.18;77.26;102025.53;4997176;28;45527;-70
2021/07/18 03:22:26;;;;;;;;;10.25;8.00;;;;;19.18;77.18;102030.88;4995971;28;45531;-70
2021/07/18 03:24:51;;;;;;;;;11.75;8.00;;;;;19.14;77.46;102028.47;4997565;28;45561;-70
2021/07/18 03:27:17;;;;;;;;;10.75;7.75;;;;;19.11;77.49;102029.53;4997519;28;45565;-69
2021/07/18 03:29:42;;;;;;;;;11.75;8.75;;;;;19.10;77.00;102027.78;4992740;28;45246;-70
2021/07/18 03:32:08;;;;;;;;;10.75;8.00;;;;;19.10;77.49;102033.13;4996931;28;45379;-70
2021/07/18 03:34:34;;;;;;;;;8.75;8.25;;;;;19.09;77.77;102025.22;4993123;28;45529;-69
2021/07/18 03:37:00;;;;;;;;;12.25;7.25;;;;;19.05;77.05;102027.19;4996675;28;45470;-69
2021/07/18 03:39:25;;;;;;;;;10.75;10.00;;;;;19.03;76.76;102018.44;4987816;28;46509;-70
2021/07/18 03:41:51;;;;;;;;;16.00;9.50;;;;;18.98;77.52;102016.03;4996544;28;45414;-69
2021/07/18 03:44:16;;;;;;;;;11.25;9.75;;;;;18.98;77.03;102036.50;4997141;28;45285;-70
2021/07/18 03:46:41;;;;;;;;;8.00;8.00;;;;;18.96;77.53;102033.06;4996417;28;45317;-70
2021/07/18 03:49:07;;;;;;;;;14.25;10.50;;;;;18.94;77.31;102032.28;4996809;28;46271;-69
2021/07/18 03:51:32;;;;;;;;;10.50;9.75;;;;;18.93;77.50;102043.91;4996606;28;45613;-70
2021/07/18 03:53:58;;;;;;;;;8.75;8.75;;;;;18.90;77.32;102036.94;4995104;28;45374;-70
2021/07/18 03:56:23;;;;;;;;;11.50;8.25;;;;;18.88;77.45;102041.50;4997076;28;45622;-70
2021/07/18 03:58:50;;;;;;;;;13.00;9.00;;;;;18.87;77.59;102042.44;4996026;28;46146;-69
2021/07/18 04:01:15;;;;;;;;;10.00;9.00;;;;;18.87;77.68;102041.59;4995541;28;45527;-70
2021/07/18 04:03:41;;;;;;;;;11.25;8.50;;;;;18.86;78.29;102043.41;4997170;28;45457;-69
2021/07/18 04:06:07;;;;;;;;;11.25;11.00;;;;;18.87;78.31;102049.56;4990537;28;45557;-70
2021/07/18 04:08:32;;;;;;;;;7.50;7.00;;;;;18.84;77.77;102047.06;4996261;28;46632;-70
2021/07/18 04:10:57;;;;;;;;;9.50;8.50;;;;;18.84;77.75;102047.06;4996354;28;45598;-70
2021/07/18 04:13:23;;;;;;;;;9.00;8.00;;;;;18.81;77.82;102041.94;4996594;28;45329;-70
2021/07/18 04:15:48;;;;;;;;;11.50;9.75;;;;;18.81;78.46;102037.47;4996375;28;45955;-70
2021/07/18 04:18:14;;;;;;;;;12.00;8.00;;;;;18.80;78.10;102041.09;4996026;28;46533;-70
2021/07/18 04:20:39;;;;;;;;;11.50;7.50;;;;;18.82;77.82;102048.97;4993133;28;45527;-70
2021/07/18 04:23:07;;;;;;;;;11.00;8.50;;;;;18.76;77.77;102045.72;4996661;28;45456;-70
2021/07/18 04:25:32;;;;;;;;;10.75;10.25;;;;;18.78;77.88;102049.13;4997000;28;45492;-69
2021/07/18 04:27:57;;;;;;;;;10.25;7.75;;;;;18.79;78.30;102055.31;4996354;28;46535;-69
2021/07/18 04:30:23;;;;;;;;;9.50;7.50;;;;;18.78;78.21;102053.63;4994311;28;45694;-70
2021/07/18 04:32:49;;;;;;;;;9.75;8.75;;;;;18.77;78.30;102050.09;4985438;28;45382;-70
2021/07/18 04:35:14;;;;;;;;;8.50;8.50;;;;;18.79;78.15;102055.31;4996357;28;45492;-70
2021/07/18 04:37:40;;;;;;;;;11.25;9.50;;;;;18.71;78.41;102039.78;4994888;28;46555;-69
2021/07/18 04:40:07;;;;;;;;;8.75;8.00;;;;;18.78;78.12;102051.81;4996573;28;45462;-69
2021/07/18 04:42:32;;;;;;;;;10.25;7.50;;;;;18.81;78.37;102055.25;4995856;28;46649;-70
2021/07/18 04:44:58;;;;;;;;;9.50;9.25;;;;;18.82;77.93;102055.16;4995678;28;45673;-70
2021/07/18 04:47:23;;;;;;;;;10.00;8.00;;;;;18.83;78.06;102058.69;4995680;28;45503;-70
2021/07/18 04:49:50;;;;;;;;;8.75;8.75;;;;;18.84;77.89;102058.59;4978274;28;45383;-70
2021/07/18 04:52:17;;;;;;;;;8.25;8.25;;;;;18.85;78.10;102059.47;4995727;28;45616;-70
2021/07/18 04:54:42;;;;;;;;;11.75;7.75;;;;;18.88;78.01;102059.28;4996478;28;45623;-70
2021/07/18 04:57:07;;;;;;;;;8.25;7.50;;;;;18.89;78.06;102069.84;4995712;28;46773;-70
2021/07/18 04:59:33;;;;;;;;;11.25;10.00;;;;;18.92;77.63;102067.00;4995918;28;45429;-69
2021/07/18 05:01:58;;;;;;;;;8.50;7.25;;;;;18.96;78.03;102078.38;4993867;28;47363;-69
2021/07/18 05:04:23;;;;;;;;;11.25;7.50;;;;;18.98;78.07;102073.78;4978215;28;45417;-69
2021/07/18 05:06:48;;;;;;;;;9.50;8.25;;;;;19.03;78.10;102075.25;4995333;28;46716;-70
2021/07/18 05:09:14;;;;;;;;;9.00;8.50;;;;;19.06;77.35;102076.03;4994910;28;53028;-70
2021/07/18 05:11:39;;;;;;;;;10.00;6.25;;;;;19.13;77.56;102088.91;4994115;28;45537;-70
2021/07/18 05:14:04;;;;;;;;;8.75;8.50;;;;;19.15;77.57;102083.47;4990084;28;45392;-70
2021/07/18 05:16:30;;;;;;;;;8.25;7.50;;;;;19.19;77.25;102079.69;4995810;28;45830;-69
2021/07/18 05:18:55;;;;;;;;;9.50;9.50;;;;;19.18;77.10;102070.84;4995284;28;45588;-69
2021/07/18 05:21:21;;;;;;;;;10.00;9.50;;;;;19.30;77.35;102083.44;4994673;28;45749;-69
2021/07/18 05:23:46;;;;;;;;;8.75;6.50;;;;;19.38;77.07;102083.03;4992826;28;45345;-70
2021/07/18 05:26:11;;;;;;;;;11.75;9.25;;;;;19.46;76.21;102074.56;4995606;28;46402;-70
2021/07/18 05:28:37;;;;;;;;;9.25;7.50;;;;;19.48;76.72;102072.69;4994670;28;45361;-70
2021/07/18 05:31:02;;;;;;;;;8.75;6.50;;;;;19.58;76.27;102078.34;4995131;28;45452;-69
2021/07/18 05:33:28;;;;;;;;;12.50;8.50;;;;;19.64;76.15;102081.50;4990304;28;45408;-70
2021/07/18 05:35:53;;;;;;;;;6.25;5.75;;;;;19.72;76.46;102076.56;4995344;28;46127;-69
2021/07/18 05:38:19;;;;;;;;;10.50;6.50;;;;;19.76;75.90;102075.44;4994871;28;45489;-70
2021/07/18 05:40:44;;;;;;;;;6.75;6.75;;;;;19.84;75.33;102076.75;4994841;28;45313;-70
2021/07/18 05:43:10;;;;;;;;;10.50;8.50;;;;;19.89;75.80;102077.34;4994870;28;45486;-70
2021/07/18 05:45:35;;;;;;;;;5.50;5.50;;;;;19.95;74.97;102085.00;4990537;28;49480;-70
2021/07/18 05:48:00;;;;;;;;;9.00;8.00;;;;;19.99;75.56;102076.72;4995427;28;45353;-70
2021/07/18 05:50:26;;;;;;;;;9.25;8.50;;;;;20.14;75.09;102079.38;4994319;28;45697;-70
2021/07/18 05:52:51;;;;;;;;;8.75;5.50;;;;;20.26;75.36;102078.63;4991961;28;45529;-70
2021/07/18 05:55:17;;;;;;;;;9.00;9.00;;;;;20.47;74.52;102074.66;4994996;28;45661;-70
2021/07/18 05:57:42;;;;;;;;;7.00;6.75;;;;;20.71;74.00;102079.34;4993552;28;45624;-69
2021/07/18 06:00:11;;;;;;;;;7.75;5.50;;;;;20.97;74.17;102077.66;4994192;28;45443;-69
2021/07/18 06:02:36;;;;;;;;;8.00;5.75;;;;;21.13;73.82;102075.69;4988324;28;45444;-70
2021/07/18 06:05:03;;;;;;;;;6.00;6.00;;;;;21.38;73.20;102079.44;4993881;28;47147;-70
2021/07/18 06:07:28;;;;;;;;;6.00;6.00;;;;;21.60;72.56;102077.03;4993248;28;45766;-70
2021/07/18 06:09:54;;;;;;;;;5.50;5.50;;;;;21.80;71.86;102086.38;4994679;28;45428;-70
2021/07/18 06:12:19;;;;;;;;;7.75;6.25;;;;;21.93;71.65;102071.19;4994001;28;45461;-70
2021/07/18 06:14:44;;;;;;;;;7.75;4.00;;;;;22.02;70.90;102073.19;4994463;28;46253;-70
2021/07/18 06:17:11;;;;;;;;;8.75;6.50;;;;;22.07;70.47;102081.78;4994356;28;45440;-69
2021/07/18 06:19:37;;;;;;;;;6.75;6.00;;;;;22.11;70.59;102074.41;4994403;28;45918;-70
2021/07/18 06:22:03;;;;;;;;;4.75;4.75;;;;;22.16;70.05;102079.47;4994271;28;45393;-70
2021/07/18 06:24:28;;;;;;;;;6.25;6.00;;;;;22.14;70.23;102080.44;4994007;28;46487;-70
2021/07/18 06:26:54;;;;;;;;;3.75;3.75;;;;;22.12;69.84;102079.66;4995120;28;45333;-70
2021/07/18 06:29:19;;;;;;;;;5.50;3.50;;;;;22.12;70.21;102082.34;4994813;28;46854;-70
2021/07/18 06:31:44;;;;;;;;;8.25;5.50;;;;;22.13;69.72;102081.41;4994084;28;45424;-70
2021/07/18 06:34:10;;;;;;;;;4.50;4.50;;;;;22.12;69.45;102085.00;4994571;28;47311;-71
2021/07/18 06:36:35;;;;;;;;;9.00;4.75;;;;;22.12;69.20;102093.03;4990496;28;45841;-70
2021/07/18 06:39:01;;;;;;;;;6.00;5.00;;;;;22.07;69.68;102083.59;4994359;28;45535;-70
2021/07/18 06:41:27;;;;;;;;;3.75;3.75;;;;;22.05;69.70;102097.09;4994519;28;47808;-70
2021/07/18 06:43:52;;;;;;;;;5.75;5.75;;;;;22.04;69.20;102087.34;4993344;28;45612;-69
2021/07/18 06:46:17;;;;;;;;;9.50;7.25;;;;;22.03;69.60;102096.38;4994176;28;45636;-70
2021/07/18 06:48:43;;;;;;;;;8.00;6.00;;;;;22.02;69.56;102096.44;4994063;28;45282;-70
2021/07/18 06:51:08;;;;;;;;;7.25;6.00;;;;;21.98;69.42;102093.16;4992397;28;45373;-70
2021/07/18 06:53:33;;;;;;;;;6.75;5.25;;;;;22.05;69.50;102094.41;4993114;28;59027;-70
2021/07/18 06:55:59;;;;;;;;;7.75;6.00;;;;;22.11;69.36;102090.50;4993539;28;45408;-69
2021/07/18 06:58:24;;;;;;;;;5.50;5.50;;;;;22.15;69.63;102089.31;4989288;28;45558;-69
2021/07/18 07:00:49;;;;;;;;;4.00;4.00;;;;;22.20;68.92;102087.16;4993855;28;46137;-70
2021/07/18 07:03:15;;;;;;;;;5.50;4.00;;;;;22.25;69.16;102093.06;4993376;28;46292;-70
2021/07/18 07:05:40;;;;;;;;;3.50;3.50;;;;;22.32;68.89;102085.44;4994246;28;45425;-70
2021/07/18 07:08:06;;;;;;;;;5.25;5.25;;;;;22.41;69.09;102087.47;4993190;28;45490;-70
2021/07/18 07:10:31;;;;;;;;;4.00;4.00;;;;;22.47;69.18;102089.69;4994338;28;45483;-70
2021/07/18 07:12:57;;;;;;;;;7.25;4.00;;;;;22.60;68.80;102093.22;4993274;28;45475;-71
2021/07/18 07:15:22;;;;;;;;;5.00;4.50;;;;;22.65;68.38;102090.19;4993662;28;45461;-71
2021/07/18 07:17:47;;;;;;;;;6.00;4.00;;;;;22.75;68.30;102085.00;4991864;28;45388;-70
2021/07/18 07:20:14;;;;;;;;;8.75;4.25;;;;;22.84;68.31;102089.72;4993369;28;45495;-70
2021/07/18 07:22:40;;;;;;;;;5.50;5.50;;;;;22.89;67.65;102098.31;4993181;28;46623;-69
2021/07/18 07:25:10;;;;;;;;;8.00;6.25;;;;;22.96;67.82;102090.66;4993040;28;45636;-70
2021/07/18 07:27:36;;;;;;;;;4.25;4.25;;;;;23.03;67.92;102075.84;4994364;28;45628;-70
2021/07/18 07:30:05;;;;;;;;;7.25;6.00;;;;;23.16;67.53;102085.53;4993813;28;45500;-70
2021/07/18 07:32:31;;;;;;;;;6.75;4.25;;;;;23.28;67.21;102090.94;4992063;28;46653;-70
2021/07/18 07:34:56;;;;;;;;;5.00;4.00;;;;;23.44;66.86;102080.78;4988841;28;45539;-70
2021/07/18 07:37:24;;;;;;;;;5.25;5.25;;;;;23.85;66.82;102072.22;4991392;28;45473;-70
2021/07/18 07:39:51;;;;;;;;;3.25;3.00;;;;;24.50;65.60;102073.41;4993937;28;45524;-69
2021/07/18 07:42:17;;;;;;;;;3.75;3.75;;;;;25.03;65.32;102060.06;4994063;28;45490;-70
2021/07/18 07:44:42;;;;;;;;;2.50;2.50;;;;;25.73;64.08;102077.47;4992053;28;46630;-70
2021/07/18 07:47:07;;;;;;;;;4.50;4.50;;;;;25.65;62.23;102080.00;4993010;28;47525;-70
2021/07/18 07:49:32;;;;;;;;;3.00;3.00;;;;;25.73;62.37;102069.41;4994017;28;45495;-70
2021/07/18 07:51:58;;;;;;;;;3.00;3.00;;;;;26.24;61.57;102079.34;4992712;28;45513;-70
2021/07/18 07:54:23;;;;;;;;;4.00;4.00;;;;;26.60;60.79;102083.34;4993192;28;46746;-71
2021/07/18 07:56:48;;;;;;;;;3.00;3.00;;;;;26.92;60.58;102093.91;4992827;28;48238;-71
2021/07/18 07:59:14;;;;;;;;;3.50;3.50;;;;;28.18;59.50;102082.19;4993837;28;45545;-70
2021/07/18 08:01:39;;;;;;;;;3.00;3.00;;;;;29.56;56.54;102085.63;4992006;28;45548;-70
2021/07/18 08:04:05;;;;;;;;;4.50;3.50;;;;;30.39;56.30;102080.56;4992937;28;45696;-70
2021/07/18 08:06:30;;;;;;;;;4.50;3.50;;;;;32.14;53.87;102087.50;4995540;28;45431;-70
2021/07/18 08:08:55;;;;;;;;;5.50;3.00;;;;;32.84;50.11;102083.13;4996965;28;45302;-70
2021/07/18 08:11:20;;;;;;;;;3.75;3.00;;;;;33.49;49.54;102085.41;4996051;28;55692;-70
2021/07/18 08:13:46;;;;;;;;;3.50;3.00;;;;;34.98;47.60;102087.94;4996275;28;46270;-71
2021/07/18 08:16:11;;;;;;;;;3.00;1.25;;;;;36.32;45.31;102082.44;4995465;28;46764;-72
2021/07/18 08:18:38;;;;;;;;;3.25;3.00;;;;;38.04;42.28;102090.06;4993201;28;45479;-70
2021/07/18 08:21:04;;;;;;;;;2.75;2.75;;;;;39.37;41.01;102091.09;4995795;28;46371;-69
2021/07/18 08:23:31;;;;;;;;;1.75;1.50;;;;;39.78;38.34;102081.44;4996754;28;45486;-70
2021/07/18 08:25:57;;;;;;;;;1.50;1.50;;;;;39.25;37.49;102081.03;4996699;28;45578;-70
2021/07/18 08:28:24;;;;;;;;;2.00;2.00;;;;;38.56;38.63;102075.31;4995876;28;45569;-70
2021/07/18 08:30:50;;;;;;;;;1.25;1.25;;;;;38.15;37.65;102070.19;4996394;28;45419;-71
2021/07/18 08:33:15;;;;;;;;;3.00;2.00;;;;;39.14;37.61;102077.91;4993243;28;45503;-70
2021/07/18 08:35:41;;;;;;;;;2.00;2.00;;;;;40.84;35.85;102074.59;4996470;28;45605;-70
2021/07/18 08:38:06;;;;;;;;;1.50;1.00;;;;;42.38;33.94;102073.56;4999426;28;45568;-70
2021/07/18 08:40:37;;;;;;;;;2.25;1.00;;;;;43.04;33.70;102074.84;4996200;28;47954;-70
2021/07/18 08:43:04;;;;;;;;;4.50;2.75;;;;;43.42;32.72;102071.31;4989673;28;45717;-68
2021/07/18 08:45:30;;;;;;;;;1.00;1.00;;;;;44.52;30.92;102074.16;4994734;28;45455;-69
2021/07/18 08:47:55;;;;;;;;;1.50;1.50;;;;;44.58;29.02;102066.72;4996854;28;45500;-68
2021/07/18 08:50:21;;;;;;;;;0.50;0.50;;;;;43.76;30.45;102077.63;4995853;28;46433;-68
2021/07/18 08:52:51;;;;;;;;;1.00;1.00;;;;;44.35;30.01;102065.13;4995780;28;45436;-68
2021/07/18 08:55:16;;;;;;;;;2.75;1.00;;;;;46.05;28.45;102067.88;4992956;28;45358;-69
2021/07/18 08:57:42;;;;;;;;;3.00;1.50;;;;;47.62;26.90;102071.09;4995828;28;45399;-69
2021/07/18 09:00:08;;;;;;;;;1.00;0.00;;;;;48.61;25.38;102074.00;4984338;28;46267;-68
2021/07/18 09:02:34;;;;;;;;;1.50;1.50;;;;;48.69;25.59;102075.34;4996057;28;45491;-68
2021/07/18 09:04:59;;;;;;;;;0.75;0.50;;;;;48.23;25.25;102078.41;4995519;28;45412;-68
2021/07/18 09:07:25;;;;;;;;;7.00;6.25;;;;;47.73;26.78;102080.28;4995816;28;45538;-69
2021/07/18 09:10:01;;;;;;;;;7.75;7.75;;;;;47.30;26.25;102080.66;4995479;28;45446;-69
2021/07/18 09:12:26;;;;;;;;;3.00;1.00;;;;;46.78;25.92;102072.50;4995407;28;45670;-68
2021/07/18 09:14:51;;;;;;;;;1.00;1.00;;;;;46.30;26.82;102071.88;4996191;28;45780;-68
2021/07/18 09:17:20;;;;;;;;;0.50;0.50;;;;;45.73;26.59;102078.25;4994932;28;45489;-68
2021/07/18 09:19:49;;;;;;;;;2.00;1.25;;;;;45.16;26.98;102065.94;4992567;28;47287;-70
2021/07/18 09:22:20;;;;;;;;;1.00;0.75;;;;;44.54;27.27;102058.13;4994207;28;45570;-70
2021/07/18 09:24:49;;;;;;;;;2.50;2.00;;;;;44.01;27.20;102070.75;4994756;28;45803;-71
2021/07/18 09:27:14;;;;;;;;;1.25;1.25;;;;;43.58;27.60;102064.06;4992489;28;45395;-68
2021/07/18 09:29:53;;;;;;;;;1.00;1.00;;;;;43.03;27.44;102062.09;4990904;28;47337;-68
2021/07/18 09:32:23;;;;;;;;;1.00;1.00;;;;;42.42;27.99;102059.00;4994898;28;45592;-68
2021/07/18 09:34:50;;;;;;;;;0.00;0.00;;;;;42.01;27.79;102046.25;4989639;28;45761;-68
2021/07/18 09:37:21;;;;;;;;;3.25;0.25;;;;;41.53;28.88;102054.84;4987613;28;45611;-68
2021/07/18 09:40:19;;;;;;;;;0.75;0.75;;;;;41.02;28.98;102051.66;4989868;28;46225;-68
2021/07/18 09:42:47;;;;;;;;;0.25;0.00;;;;;40.47;29.41;102061.97;4981647;28;45555;-68
2021/07/18 09:45:12;;;;;;;;;2.25;0.25;;;;;40.01;29.12;102053.22;4976629;28;45568;-71
2021/07/18 09:48:09;;;;;;;;;0.25;0.25;;;;;39.60;28.77;102045.59;4988063;28;45532;-71
2021/07/18 09:50:37;;;;;;;;;1.00;1.00;;;;;39.18;30.08;102045.34;4990481;28;45676;-71
2021/07/18 09:53:18;;;;;;;;;1.75;1.00;;;;;38.69;30.39;102055.19;4995663;28;45410;-71
2021/07/18 09:56:03;;;;;;;;;3.25;1.00;;;;;38.34;30.06;102047.31;4995452;28;45396;-71
2021/07/18 09:58:30;;;;;;;;;0.25;0.25;;;;;38.16;30.59;102047.16;4994849;28;45809;-70
2021/07/18 10:00:57;;;;;;;;;0.75;0.75;;;;;38.10;30.85;102045.28;4991358;28;47030;-70
2021/07/18 10:03:23;;;;;;;;;0.00;0.00;;;;;37.94;30.36;102051.25;4994229;28;45909;-71
2021/07/18 10:06:15;;;;;;;;;1.00;0.50;;;;;37.73;30.14;102053.16;4995028;28;45767;-71
2021/07/18 10:08:48;;;;;;;;;10.50;10.50;;;;;37.52;31.26;102042.44;4995766;28;45587;-72
2021/07/18 10:11:17;;;;;;;;;2.25;2.25;;;;;37.37;31.01;102050.91;4994622;28;47125;-72
2021/07/18 10:13:44;;;;;;;;;2.25;0.00;;;;;37.16;30.20;102042.84;4994698;28;45559;-72
2021/07/18 10:16:10;;;;;;;;;1.00;1.00;;;;;36.93;30.31;102043.28;4995058;28;45353;-72
2021/07/18 10:18:37;;;;;;;;;2.50;0.75;;;;;36.71;30.00;102035.19;4994228;28;45390;-72
2021/07/18 10:21:05;;;;;;;;;2.00;2.00;;;;;36.53;30.93;102043.16;4995130;28;46802;-71
2021/07/18 10:23:32;;;;;;;;;1.00;1.00;;;;;36.46;31.28;102043.13;4994040;28;45679;-73
2021/07/18 10:25:59;;;;;;;;;2.00;1.25;;;;;36.45;31.49;102038.72;4994698;28;45487;-73
2021/07/18 10:28:26;;;;;;;;;10.25;7.50;;;;;36.38;31.32;102045.16;4993285;28;45334;-72
2021/07/18 10:30:56;;;;;;;;;3.50;3.25;;;;;36.24;31.13;102030.63;4993798;28;47441;-73
2021/07/18 10:33:22;;;;;;;;;28.75;28.00;;;;;36.15;31.89;102035.41;4994633;28;45777;-71
2021/07/18 10:35:52;;;;;;;;;6.75;6.25;;;;;35.97;31.50;102035.09;4994659;28;45488;-71
2021/07/18 10:38:22;;;;;;;;;12.00;9.50;;;;;35.80;31.83;102026.34;4994039;28;45507;-73
2021/07/18 10:40:54;;;;;;;;;10.75;10.75;;;;;35.61;31.92;102030.66;4994538;28;45811;-72
2021/07/18 10:43:35;;;;;;;;;12.00;11.50;;;;;35.39;32.49;102031.72;4994582;28;45431;-72
2021/07/18 10:46:05;;;;;;;;;8.75;8.25;;;;;35.26;32.69;102030.56;4994567;28;45337;-70
2021/07/18 10:48:45;;;;;;;;;137.25;121.25;;;;;35.05;32.95;102022.41;4992816;28;45743;-72
2021/07/18 10:51:12;;;;;;;;;6.50;5.50;;;;;35.03;32.67;102030.81;4992230;28;46478;-72
2021/07/18 10:53:38;;;;;;;;;13.25;11.75;;;;;34.92;32.75;102024.97;4994028;28;45569;-70
2021/07/18 10:56:04;;;;;;;;;12.00;10.75;;;;;34.78;33.56;102024.03;4993931;28;45314;-72
2021/07/18 10:58:39;;;;;;;;;5.00;4.00;;;;;34.66;33.42;102012.75;4994158;28;45334;-72
2021/07/18 11:01:24;;;;;;;;;5.75;5.75;;;;;34.58;33.73;102015.63;4996626;28;46522;-73
2021/07/18 11:03:50;;;;;;;;;8.75;5.75;;;;;34.50;33.86;102008.38;4989287;28;45498;-73
2021/07/18 11:06:19;;;;;;;;;16.75;14.00;;;;;34.43;33.89;102007.44;4993242;28;45576;-72
2021/07/18 11:09:06;;;;;;;;;86.75;67.00;;;;;34.43;34.50;102014.78;4994378;28;45615;-73
2021/07/18 11:11:49;;;;;;;;;48.75;37.25;;;;;34.49;34.35;102008.56;4995029;28;47102;-72
2021/07/18 11:14:25;;;;;;;;;39.25;26.75;;;;;34.56;34.67;102008.63;4992738;28;45589;-73
2021/07/18 11:16:57;;;;;;;;;37.50;27.50;;;;;34.55;34.81;102007.78;4994907;28;45431;-72
2021/07/18 11:19:34;;;;;;;;;6.25;5.25;;;;;34.51;34.20;101998.31;4994768;28;45597;-73